Wind Cave National Park, SD

5:22 AM MDT on September 21, 2014 (GMT -0600)
RAWS CUSTER SD US | Change Station
CLOSE
Current Station
Personal Weather Station
Location: Custer, SD
Elevation: 5820 ft
Nearby Weather Stations

Elev 5820 ft 43.78 °N, 103.64 °W | Updated 58 minutes ago

Clear
Clear
46 °F
Feels Like 46 °F
N
2
Wind Variable Wind from NNW
Gusts 5.0 mph

Today
High -- | Low -- °F
--% Chance of Precip.
Yesterday
High -- | Low -- °F
Precip. -- in
6:40 AM 6:53 PM
Waning Crescent, 7% visible
Pressure 30.27 in
Visibility 10.0 miles
Clouds Clear
Windchill 46 °F
Dew Point 32 °F
Humidity 57%
Rainfall 0.00 in
Snow Depth 0 in
UV 0 out of 12
Pollen 5.40 out of 12
Air Quality Not available.
Flu Activity Not available.
METAR KCUT 211053Z AUTO 33005KT 10SM CLR 05/00 A3039 RMK AO2 SLP251 T00500000

More Conditions Fewer Conditions

Pressure 30.27 in
Visibility 10.0 miles
Clouds Clear
Windchill 46 °F
Dew Point 32 °F
Humidity 57%
Rainfall 0.00 in
Snow Depth 0 in
UV 0 out of 12
Pollen 5.40 out of 12
Air Quality Not available.
Flu Activity Not available.
METAR KCUT 211053Z AUTO 33005KT 10SM CLR 05/00 A3039 RMK AO2 SLP251 T00500000

More Conditions Fewer Conditions

10-Day Weather Forecast

Almanac

Astronomy

Sep. 21, 2014 Rise Set
Actual Time 6:40 AM MDT 6:53 PM MDT
Civil Twilight 6:12 AM MDT 7:22 PM MDT
Nautical Twilight 5:38 AM MDT 7:55 PM MDT
Astronomical Twilight 5:03 AM MDT 8:30 PM MDT
Moon 4:12 AM MDT 5:33 PM MDT
Length of Visible Light 13h 10m
Length of Day
12h 12m
Tomorrow will be 2m 59s shorter.
Waning Crescent, 7% of the Moon is Illuminated
Today
Waning Crescent
Sep 24
New
Oct 1
First Quarter
Oct 8
Full
Oct 15
Last Quarter

Today's Extremes

State Highs State Lows

Community

WunderPhotos

Upload Photos

1,755,122 photos uploaded!

Nearby

Snow Depth

Station Depth Elevation
Blind Park 0 in 6890 ft

Earthquake Activity

City Distance Mag. Time & Date
No recent earthquake activity has been reported nearby.
Minimum magnitude displayed is 2.5.

Coastal Water Temperatures

Place Temperature
No Stations Reporting

Nearby Weather Stations